Time;durP1;ratioP1;P1;durP2;ratioP2;P2;SDS_P1;SDS_P2;PMS_P1;PMS_P2;Temp;Humidity;BMP_temperature;BMP_pressure;BME280_temperature;BME280_humidity;BME280_pressure;Samples;Min_cycle;Max_cycle;Signal;HPM_P1;HPM_P2
2023/12/20 00:00:39;;;;;;;17.75;2.30;;;;;;;10.66;68.27;101716.16;5013412;28;20030;-45
2023/12/20 00:03:05;;;;;;;14.68;2.10;;;;;;;10.94;68.30;101717.72;5012535;28;20041;-49
2023/12/20 00:05:32;;;;;;;14.05;2.33;;;;;;;10.94;68.04;101716.00;5013201;28;20042;-46
2023/12/20 00:07:57;;;;;;;19.05;2.60;;;;;;;10.87;68.76;101710.59;5012843;28;20118;-48
2023/12/20 00:10:22;;;;;;;14.50;2.67;;;;;;;10.99;68.00;101721.34;5013358;28;20125;-51
2023/12/20 00:12:48;;;;;;;16.40;2.60;;;;;;;10.98;67.67;101711.75;5012855;28;20113;-44
2023/12/20 00:15:13;;;;;;;20.23;2.83;;;;;;;10.57;68.60;101697.66;5012786;28;20102;-46
2023/12/20 00:17:38;;;;;;;17.45;2.40;;;;;;;11.05;67.77;101710.16;5013042;28;20034;-47
2023/12/20 00:20:05;;;;;;;15.32;2.45;;;;;;;10.65;68.84;101701.34;5012680;28;20076;-46
2023/12/20 00:22:30;;;;;;;13.15;2.80;;;;;;;11.11;67.02;101695.53;5012691;28;20400;-44
2023/12/20 00:24:56;;;;;;;13.52;2.72;;;;;;;11.15;67.10;101692.19;5012306;28;20042;-46
2023/12/20 00:27:21;;;;;;;16.65;2.22;;;;;;;11.23;67.22;101701.06;5012941;28;20057;-46
2023/12/20 00:29:49;;;;;;;13.30;2.75;;;;;;;11.13;66.78;101706.91;5012901;28;20029;-47
2023/12/20 00:32:14;;;;;;;15.25;2.33;;;;;;;11.28;66.03;101719.47;5012061;28;20033;-46
2023/12/20 00:34:40;;;;;;;17.13;2.85;;;;;;;11.21;67.20;101718.44;5011123;28;20057;-48
2023/12/20 00:37:05;;;;;;;16.58;2.83;;;;;;;10.87;67.63;101716.69;5011979;28;20034;-45
2023/12/20 00:39:32;;;;;;;14.82;2.70;;;;;;;10.92;67.37;101708.97;5011434;28;20500;-47
2023/12/20 00:41:57;;;;;;;16.90;2.72;;;;;;;10.98;66.69;101714.34;5011915;28;20037;-44
2023/12/20 00:44:23;;;;;;;16.77;3.13;;;;;;;10.94;66.27;101708.19;5012429;28;20408;-46
2023/12/20 00:46:48;;;;;;;13.88;2.80;;;;;;;10.90;66.43;101703.75;5012422;28;20065;-47
2023/12/20 00:49:13;;;;;;;15.73;2.90;;;;;;;10.95;66.62;101704.75;5012759;28;20102;-46
2023/12/20 00:51:39;;;;;;;19.60;3.00;;;;;;;10.77;66.45;101701.66;5012499;28;20050;-47
2023/12/20 00:54:04;;;;;;;19.63;2.85;;;;;;;11.05;65.85;101710.16;5012335;28;20034;-46
2023/12/20 00:56:29;;;;;;;17.48;3.00;;;;;;;11.23;65.80;101702.78;5012122;28;20489;-48
2023/12/20 00:58:55;;;;;;;14.13;2.65;;;;;;;11.15;65.79;101707.84;5011762;28;20484;-46
2023/12/20 01:01:21;;;;;;;18.52;3.20;;;;;;;11.03;66.19;101723.19;5012008;28;20125;-46
2023/12/20 01:03:46;;;;;;;16.30;2.95;;;;;;;10.89;67.16;101712.41;5011755;28;20076;-45
2023/12/20 01:06:12;;;;;;;17.55;3.28;;;;;;;10.97;67.63;101712.63;5011503;28;20416;-44
2023/12/20 01:08:37;;;;;;;15.05;2.72;;;;;;;10.98;67.22;101715.22;5012019;28;20042;-48
2023/12/20 01:11:06;;;;;;;19.15;3.08;;;;;;;10.87;67.59;101710.59;5011035;28;20397;-44
2023/12/20 01:13:31;;;;;;;17.17;2.75;;;;;;;10.77;67.87;101713.81;5010981;28;20477;-47
2023/12/20 01:15:57;;;;;;;19.33;2.88;;;;;;;11.05;67.16;101712.78;5011442;28;20061;-47
2023/12/20 01:18:22;;;;;;;15.30;3.00;;;;;;;11.01;67.16;101705.72;5012322;28;20038;-48
2023/12/20 01:20:47;;;;;;;14.73;2.55;;;;;;;11.00;67.04;101710.06;5011797;28;20033;-50
2023/12/20 01:23:13;;;;;;;22.02;2.90;;;;;;;10.54;67.53;101708.00;5011295;28;20401;-44
2023/12/20 01:25:39;;;;;;;16.33;3.30;;;;;;;11.07;66.54;101708.50;5011584;28;20124;-49
2023/12/20 01:28:04;;;;;;;16.60;2.40;;;;;;;11.00;66.46;101715.28;5011011;28;20408;-46
2023/12/20 01:30:29;;;;;;;20.38;3.00;;;;;;;11.27;66.48;101713.38;5011136;28;20038;-47
2023/12/20 01:32:55;;;;;;;17.50;2.53;;;;;;;11.43;65.77;101711.97;5010825;28;20061;-46
2023/12/20 01:35:20;;;;;;;18.75;2.92;;;;;;;11.19;66.71;101720.13;5011522;28;20034;-50
2023/12/20 01:37:45;;;;;;;15.43;2.30;;;;;;;11.02;67.04;101711.00;5011325;28;20539;-46
2023/12/20 01:40:11;;;;;;;13.88;2.70;;;;;;;11.21;67.00;101702.78;5010927;28;20053;-46
2023/12/20 01:42:36;;;;;;;18.48;3.28;;;;;;;11.21;66.15;101694.94;5010883;28;20084;-50
2023/12/20 01:45:02;;;;;;;22.13;2.70;;;;;;;11.26;65.88;101702.88;5010890;28;20045;-45
2023/12/20 01:47:28;;;;;;;14.75;2.53;;;;;;;11.18;66.42;101709.63;5010381;28;20026;-46
2023/12/20 01:49:54;;;;;;;18.10;2.60;;;;;;;11.12;66.74;101714.69;5010978;28;20396;-46
2023/12/20 01:52:20;;;;;;;15.85;2.80;;;;;;;11.06;66.84;101704.09;5010832;28;20168;-45
2023/12/20 01:54:47;;;;;;;18.85;2.97;;;;;;;11.24;66.90;101709.78;5011015;28;20053;-46
2023/12/20 01:57:13;;;;;;;20.10;2.75;;;;;;;11.16;66.77;101714.81;5010390;28;20030;-46
2023/12/20 01:59:40;;;;;;;21.80;3.17;;;;;;;11.37;66.01;101709.22;5011270;28;20030;-45
2023/12/20 02:02:05;;;;;;;16.05;2.65;;;;;;;11.11;66.91;101705.97;5010218;28;20416;-51
2023/12/20 02:04:31;;;;;;;21.80;3.00;;;;;;;11.20;66.69;101705.34;5010829;28;20104;-46
2023/12/20 02:06:58;;;;;;;16.80;3.05;;;;;;;11.54;65.03;101707.00;5010466;28;20550;-46
2023/12/20 02:09:24;;;;;;;21.80;3.00;;;;;;;10.98;67.34;101704.78;5009705;28;20033;-48
2023/12/20 02:11:49;;;;;;;18.33;2.97;;;;;;;10.99;66.80;101708.28;5010633;28;20034;-48
2023/12/20 02:14:14;;;;;;;18.05;2.60;;;;;;;11.23;66.75;101701.06;5010431;28;20040;-45
2023/12/20 02:16:40;;;;;;;26.23;3.00;;;;;;;10.85;67.80;101701.88;5010641;28;20044;-48
2023/12/20 02:19:14;;;;;;;13.95;2.63;;;;;;;11.05;67.60;101705.84;5010876;28;20124;-45
2023/12/20 02:21:39;;;;;;;18.15;3.08;;;;;;;11.14;66.56;101705.19;5011661;28;20022;-46
2023/12/20 02:24:05;;;;;;;18.60;2.58;;;;;;;10.92;66.74;101704.66;5011302;28;20041;-46
2023/12/20 02:26:32;;;;;;;16.70;2.45;;;;;;;10.61;67.30;101702.13;5012044;28;20133;-48
2023/12/20 02:28:58;;;;;;;20.05;2.72;;;;;;;10.70;67.24;101697.13;5010375;28;20496;-44
2023/12/20 02:31:23;;;;;;;15.80;2.67;;;;;;;10.74;67.35;101693.75;5010431;28;20233;-42
2023/12/20 02:33:49;;;;;;;18.92;2.95;;;;;;;10.62;67.23;101700.38;5009335;28;20437;-45
2023/12/20 02:36:14;;;;;;;14.25;2.28;;;;;;;10.79;67.04;101686.94;5010164;28;20033;-50
2023/12/20 02:38:40;;;;;;;14.43;2.45;;;;;;;10.67;66.40;101677.94;5010510;28;20046;-45
2023/12/20 02:41:05;;;;;;;17.33;2.58;;;;;;;10.86;66.23;101694.06;5010305;28;20030;-47
2023/12/20 02:43:30;;;;;;;17.83;3.15;;;;;;;10.76;66.98;101688.56;5010787;28;20081;-47
2023/12/20 02:45:56;;;;;;;15.93;3.03;;;;;;;10.73;66.75;101681.56;5009666;28;20406;-45
2023/12/20 02:48:21;;;;;;;20.85;2.97;;;;;;;10.65;67.29;101677.00;5010923;28;20052;-48
2023/12/20 02:50:48;;;;;;;12.85;2.33;;;;;;;11.11;65.73;101668.56;5009223;28;20034;-48
2023/12/20 02:53:14;;;;;;;18.35;2.92;;;;;;;10.98;66.40;101672.59;5009607;28;20516;-46
2023/12/20 02:55:39;;;;;;;14.68;2.47;;;;;;;10.66;67.35;101660.50;5010525;28;20038;-49
2023/12/20 02:58:04;;;;;;;16.95;2.58;;;;;;;10.82;66.64;101660.94;5010633;28;20072;-47
2023/12/20 03:00:30;;;;;;;21.70;3.65;;;;;;;10.65;67.14;101664.84;5014680;28;20069;-46
2023/12/20 03:02:55;;;;;;;12.68;2.55;;;;;;;10.74;67.59;101652.03;5013546;28;20030;-45
2023/12/20 03:05:20;;;;;;;15.85;2.88;;;;;;;10.87;67.61;101661.91;5014342;28;20482;-46
2023/12/20 03:07:46;;;;;;;14.82;2.78;;;;;;;10.91;67.13;101652.47;5014112;28;20045;-48
2023/12/20 03:10:11;;;;;;;21.13;2.92;;;;;;;10.90;66.90;101668.94;5014051;28;20456;-48
2023/12/20 03:12:36;;;;;;;16.95;2.38;;;;;;;10.54;67.34;101667.19;5013813;28;20038;-50
2023/12/20 03:15:02;;;;;;;14.32;2.95;;;;;;;10.94;66.08;101662.94;5013756;28;20046;-47
2023/12/20 03:17:27;;;;;;;21.70;2.97;;;;;;;10.84;66.84;101667.06;5014173;28;20113;-45
2023/12/20 03:19:53;;;;;;;18.98;2.58;;;;;;;10.75;66.66;101665.94;5013713;28;20033;-46
2023/12/20 03:22:18;;;;;;;17.38;3.05;;;;;;;10.96;66.13;101661.28;5013689;28;20497;-45
2023/12/20 03:24:43;;;;;;;14.95;2.67;;;;;;;10.88;66.70;101668.91;5013895;28;20046;-46
2023/12/20 03:27:09;;;;;;;15.90;2.40;;;;;;;10.77;65.75;101664.25;5014029;28;20061;-49
2023/12/20 03:29:34;;;;;;;16.83;2.25;;;;;;;10.52;65.10;101650.59;5013192;28;20037;-46
2023/12/20 03:31:59;;;;;;;23.83;3.20;;;;;;;10.94;64.80;101656.00;5012986;28;20034;-45
2023/12/20 03:34:26;;;;;;;16.98;2.92;;;;;;;10.87;64.89;101669.75;5013484;28;20042;-50
2023/12/20 03:36:51;;;;;;;16.75;2.83;;;;;;;10.74;64.97;101666.78;5013123;28;20025;-51
2023/12/20 03:39:16;;;;;;;18.88;2.70;;;;;;;10.93;65.08;101664.66;5014015;28;20515;-44
2023/12/20 03:41:42;;;;;;;15.93;2.80;;;;;;;10.73;65.44;101671.16;5013437;28;20033;-46
2023/12/20 03:44:07;;;;;;;21.45;3.00;;;;;;;11.16;64.36;101667.81;5013310;28;20076;-46
2023/12/20 03:46:32;;;;;;;13.65;2.70;;;;;;;10.80;65.61;101664.31;5014969;28;20041;-46
2023/12/20 03:48:57;;;;;;;17.45;2.60;;;;;;;10.94;65.44;101657.72;5015132;28;20026;-48
2023/12/20 03:51:23;;;;;;;23.40;2.72;;;;;;;10.94;65.72;101655.13;5017423;28;20045;-47
2023/12/20 03:53:48;;;;;;;20.58;3.30;;;;;;;10.74;67.50;101653.75;5015197;28;20496;-46
2023/12/20 03:56:13;;;;;;;23.83;2.88;;;;;;;10.75;66.50;101652.91;5012843;28;20144;-45
2023/12/20 03:58:39;;;;;;;18.58;3.13;;;;;;;11.03;66.04;101652.75;5013352;28;20042;-46
2023/12/20 04:01:10;;;;;;;18.40;2.97;;;;;;;10.93;66.80;101646.41;5012656;28;20034;-49
2023/12/20 04:03:35;;;;;;;16.92;2.63;;;;;;;10.76;67.16;101652.06;5012684;28;20500;-45
2023/12/20 04:06:00;;;;;;;14.05;2.72;;;;;;;10.83;67.12;101651.38;5012385;28;20048;-48
2023/12/20 04:08:26;;;;;;;16.58;2.83;;;;;;;10.45;68.50;101664.31;5011941;28;20034;-44
2023/12/20 04:10:51;;;;;;;16.77;3.08;;;;;;;10.60;67.98;101656.03;5012801;28;20026;-44
2023/12/20 04:13:16;;;;;;;21.45;3.35;;;;;;;10.54;68.47;101648.94;5011850;28;20030;-52
2023/12/20 04:15:42;;;;;;;15.05;2.60;;;;;;;10.50;67.91;101657.50;5012783;28;20034;-47
2023/12/20 04:18:07;;;;;;;15.98;3.05;;;;;;;10.68;67.63;101653.59;5012568;28;20566;-46
2023/12/20 04:20:32;;;;;;;18.55;2.88;;;;;;;10.51;67.78;101653.16;5012870;28;20092;-45
2023/12/20 04:22:58;;;;;;;21.02;2.88;;;;;;;10.74;67.18;101658.97;5012161;28;20428;-45
2023/12/20 04:25:23;;;;;;;25.15;3.22;;;;;;;10.85;66.96;101647.09;5013003;28;20038;-49
2023/12/20 04:27:48;;;;;;;15.73;2.97;;;;;;;10.45;67.32;101642.56;5012473;28;20041;-44
2023/12/20 04:30:13;;;;;;;16.65;2.47;;;;;;;10.90;66.26;101641.13;5012184;28;20037;-48
2023/12/20 04:32:39;;;;;;;17.83;2.95;;;;;;;10.65;67.41;101645.69;5012385;28;20034;-47
2023/12/20 04:35:08;;;;;;;17.48;3.00;;;;;;;10.66;66.84;101640.53;5012162;28;20038;-46
2023/12/20 04:37:33;;;;;;;15.63;2.92;;;;;;;10.77;66.47;101636.47;5012599;28;20041;-52
2023/12/20 04:39:59;;;;;;;19.52;3.05;;;;;;;10.38;67.84;101625.88;5012203;28;20038;-45
2023/12/20 04:42:24;;;;;;;15.38;2.65;;;;;;;10.64;66.50;101623.06;5012455;28;20029;-49
2023/12/20 04:44:49;;;;;;;13.05;2.50;;;;;;;10.29;68.28;101632.59;5012359;28;20401;-46
2023/12/20 04:47:14;;;;;;;11.95;2.90;;;;;;;10.25;68.05;101630.72;5011901;28;20042;-45
2023/12/20 04:49:40;;;;;;;12.45;2.88;;;;;;;10.62;66.48;101624.75;5012682;28;20115;-50
2023/12/20 04:52:05;;;;;;;15.73;2.30;;;;;;;10.37;67.54;101625.88;5011546;28;20544;-46
2023/12/20 04:54:31;;;;;;;16.08;2.88;;;;;;;10.88;66.00;101613.22;5011979;28;20029;-50
2023/12/20 04:56:56;;;;;;;17.63;3.60;;;;;;;10.81;66.21;101619.16;5011720;28;20739;-51
2023/12/20 04:59:21;;;;;;;24.48;2.95;;;;;;;10.93;65.95;101616.84;5012422;28;20026;-46
2023/12/20 05:01:47;;;;;;;17.15;2.85;;;;;;;10.61;66.69;101623.91;5012009;28;20033;-47
2023/12/20 05:04:12;;;;;;;19.63;3.40;;;;;;;10.38;67.72;101620.69;5011792;28;20057;-51
2023/12/20 05:06:38;;;;;;;21.95;3.28;;;;;;;10.90;66.40;101625.50;5012176;28;20034;-46
2023/12/20 05:09:03;;;;;;;18.10;3.05;;;;;;;10.49;67.65;101628.81;5011303;28;20129;-51
2023/12/20 05:11:28;;;;;;;18.00;3.10;;;;;;;10.70;66.76;101637.16;5011824;28;20026;-46
2023/12/20 05:13:53;;;;;;;21.55;3.00;;;;;;;10.82;66.36;101640.06;5011236;28;20033;-47
2023/12/20 05:16:19;;;;;;;22.27;2.95;;;;;;;10.55;66.90;101634.16;5011074;28;20470;-49
2023/12/20 05:18:45;;;;;;;18.27;3.10;;;;;;;10.58;67.81;101642.94;5011670;28;20033;-44
2023/12/20 05:21:10;;;;;;;23.02;3.17;;;;;;;10.67;67.34;101644.03;5042396;28;20038;-51
2023/12/20 05:23:36;;;;;;;19.73;3.13;;;;;;;10.56;67.94;101638.50;5011950;28;20040;-46
2023/12/20 05:26:01;;;;;;;22.27;2.97;;;;;;;10.94;66.92;101639.47;5010770;28;20042;-46
2023/12/20 05:28:26;;;;;;;15.65;2.70;;;;;;;10.51;68.06;101640.13;5011653;28;20037;-46
2023/12/20 05:30:52;;;;;;;23.85;3.28;;;;;;;10.70;67.47;101629.31;5011139;28;20037;-50
2023/12/20 05:33:17;;;;;;;16.13;2.72;;;;;;;10.84;66.87;101625.34;5011043;28;20057;-48
2023/12/20 05:35:42;;;;;;;22.13;2.92;;;;;;;11.01;66.05;101619.63;5011599;28;20029;-45
2023/12/20 05:38:07;;;;;;;16.52;3.15;;;;;;;11.11;66.25;101621.59;5010742;28;20080;-45
2023/12/20 05:40:33;;;;;;;19.15;2.97;;;;;;;10.56;67.95;101617.66;5011734;28;20663;-45
2023/12/20 05:42:58;;;;;;;17.02;3.10;;;;;;;10.79;67.52;101608.69;5010695;28;20121;-49
2023/12/20 05:45:23;;;;;;;20.65;3.30;;;;;;;10.72;67.47;101611.13;5011367;28;20262;-48
2023/12/20 05:47:49;;;;;;;16.90;2.88;;;;;;;10.90;66.63;101617.66;5011098;28;20535;-45
2023/12/20 05:50:15;;;;;;;17.70;3.10;;;;;;;11.14;66.72;101604.28;5010636;28;20121;-44
2023/12/20 05:52:41;;;;;;;21.70;3.13;;;;;;;10.58;68.17;101609.03;5010891;28;20061;-46
2023/12/20 05:55:06;;;;;;;25.00;3.35;;;;;;;11.22;66.00;101620.13;5010277;28;20087;-45
2023/12/20 05:57:32;;;;;;;16.67;3.60;;;;;;;10.76;67.09;101626.88;5009339;28;20589;-48
2023/12/20 05:59:57;;;;;;;19.90;2.92;;;;;;;11.19;66.52;101618.31;5010647;28;20041;-47
2023/12/20 06:02:23;;;;;;;22.63;4.30;;;;;;;11.07;67.06;101625.00;5010482;28;20029;-49
2023/12/20 06:04:48;;;;;;;25.23;4.97;;;;;;;11.00;66.64;101634.41;5011077;28;20056;-46
2023/12/20 06:07:14;;;;;;;19.15;3.95;;;;;;;10.68;67.89;101627.50;5011529;28;20030;-46
2023/12/20 06:09:39;;;;;;;22.33;3.30;;;;;;;10.91;67.38;101628.97;5013472;28;20030;-46
2023/12/20 06:12:05;;;;;;;15.32;2.95;;;;;;;11.20;66.15;101629.66;5011529;28;20045;-43
2023/12/20 06:14:30;;;;;;;26.00;3.25;;;;;;;11.10;66.91;101617.25;5012243;28;20469;-44
2023/12/20 06:16:56;;;;;;;22.00;2.55;;;;;;;10.95;67.60;101620.38;5010666;28;20448;-43
2023/12/20 06:19:22;;;;;;;15.15;2.72;;;;;;;10.90;67.49;101616.78;5012425;28;20037;-46
2023/12/20 06:21:47;;;;;;;22.23;3.28;;;;;;;11.01;67.43;101612.69;5012332;28;20033;-45
2023/12/20 06:24:12;;;;;;;19.60;2.72;;;;;;;11.36;66.45;101622.19;5012030;28;20385;-45
2023/12/20 06:26:38;;;;;;;18.48;3.17;;;;;;;10.73;67.84;101618.09;5012165;28;20041;-49
2023/12/20 06:29:03;;;;;;;15.98;3.25;;;;;;;10.84;67.69;101612.28;5011498;28;20136;-45
2023/12/20 06:31:29;;;;;;;24.23;3.20;;;;;;;11.03;66.97;101625.78;5011254;28;20437;-45
2023/12/20 06:33:57;;;;;;;19.17;2.92;;;;;;;10.88;67.49;101621.06;5010549;28;20045;-51
2023/12/20 06:36:24;;;;;;;21.15;3.13;;;;;;;11.31;66.11;101613.38;5010922;28;20038;-48
2023/12/20 06:38:49;;;;;;;18.92;3.20;;;;;;;11.24;66.04;101614.09;5010658;28;20129;-45
2023/12/20 06:41:15;;;;;;;23.42;3.13;;;;;;;10.80;67.59;101613.03;5010336;28;20125;-47
2023/12/20 06:43:41;;;;;;;19.45;3.17;;;;;;;11.30;65.89;101622.06;5010826;28;20120;-51
2023/12/20 06:46:06;;;;;;;27.50;3.55;;;;;;;11.57;65.76;101603.50;5010005;28;20445;-45
2023/12/20 06:48:32;;;;;;;20.75;2.95;;;;;;;11.05;67.87;101609.28;5011008;28;20471;-45
2023/12/20 06:50:59;;;;;;;17.48;2.85;;;;;;;10.85;68.06;101607.97;5011245;28;20412;-49
2023/12/20 06:53:24;;;;;;;21.13;3.40;;;;;;;11.23;66.54;101603.59;5012305;28;20054;-46
2023/12/20 06:55:50;;;;;;;17.52;3.20;;;;;;;10.97;67.52;101603.03;5014596;28;20033;-48
2023/12/20 06:58:15;;;;;;;19.30;3.20;;;;;;;10.94;67.74;101597.72;5014774;28;20102;-53
2023/12/20 07:00:40;;;;;;;22.73;3.50;;;;;;;10.92;67.65;101596.81;5014538;28;20033;-45
2023/12/20 07:03:06;;;;;;;21.65;3.05;;;;;;;10.97;67.56;101597.81;5011358;28;20176;-45
2023/12/20 07:05:31;;;;;;;22.38;3.05;;;;;;;10.95;67.52;101583.84;5013805;28;20038;-44
2023/12/20 07:07:56;;;;;;;16.08;2.95;;;;;;;10.71;67.86;101586.75;5012492;28;20120;-44
2023/12/20 07:10:22;;;;;;;20.10;3.38;;;;;;;11.00;67.02;101590.03;5012796;28;20520;-49
2023/12/20 07:12:48;;;;;;;19.70;3.00;;;;;;;11.17;67.21;101585.19;5010640;28;20045;-44
2023/12/20 07:15:14;;;;;;;16.27;2.70;;;;;;;10.92;68.13;101587.25;5009880;28;20033;-47
2023/12/20 07:17:39;;;;;;;14.25;2.70;;;;;;;11.37;65.83;101589.13;5010126;28;20071;-47
2023/12/20 07:20:07;;;;;;;17.38;3.10;;;;;;;11.17;66.72;101580.84;5009838;28;20038;-49
2023/12/20 07:22:33;;;;;;;19.48;3.40;;;;;;;10.94;67.67;101589.91;5009895;28;20030;-53
2023/12/20 07:24:59;;;;;;;18.88;3.30;;;;;;;10.81;67.96;101580.03;5009343;28;20033;-49
2023/12/20 07:27:25;;;;;;;21.95;3.47;;;;;;;10.73;68.67;101579.88;5010048;28;20669;-49
2023/12/20 07:29:51;;;;;;;22.02;3.78;;;;;;;11.02;66.81;101571.81;5009942;28;20120;-52
2023/12/20 07:32:16;;;;;;;23.50;3.65;;;;;;;10.82;67.55;101585.28;5009020;28;20045;-50
2023/12/20 07:34:41;;;;;;;28.40;3.63;;;;;;;10.91;68.46;101585.50;5009913;28;20038;-46
2023/12/20 07:37:10;;;;;;;18.88;3.63;;;;;;;10.58;68.99;101580.38;5009127;28;20038;-50
2023/12/20 07:39:35;;;;;;;17.63;3.03;;;;;;;11.10;67.61;101594.63;5009914;28;20072;-48
2023/12/20 07:42:01;;;;;;;21.92;2.88;;;;;;;10.58;68.58;101587.31;5009046;28;20142;-46
2023/12/20 07:44:26;;;;;;;20.48;2.78;;;;;;;10.87;68.12;101607.13;5011123;28;20065;-46
2023/12/20 07:46:51;;;;;;;25.42;3.33;;;;;;;11.03;67.56;101595.34;5011635;28;20778;-54
2023/12/20 07:49:16;;;;;;;18.73;2.92;;;;;;;11.17;67.08;101609.56;5013386;28;20034;-45
2023/12/20 07:51:42;;;;;;;19.50;2.55;;;;;;;11.20;67.26;101604.44;5012975;28;20037;-49
2023/12/20 07:54:08;;;;;;;19.88;2.97;;;;;;;10.78;68.84;101612.16;5012765;28;20128;-44
2023/12/20 07:56:33;;;;;;;16.08;2.80;;;;;;;11.22;68.28;101604.47;5013073;28;20034;-47
2023/12/20 07:58:58;;;;;;;20.13;3.40;;;;;;;11.10;68.63;101607.66;5012642;28;20046;-45
2023/12/20 08:01:24;;;;;;;27.42;3.10;;;;;;;11.02;68.64;101616.19;5013282;28;20034;-48
2023/12/20 08:03:50;;;;;;;18.98;2.90;;;;;;;11.00;69.57;101621.34;5012775;28;20456;-53
2023/12/20 08:06:17;;;;;;;25.83;3.20;;;;;;;11.08;68.93;101634.59;5012487;28;20034;-45
2023/12/20 08:08:42;;;;;;;17.40;2.75;;;;;;;11.11;68.73;101629.41;5012020;28;20038;-50
2023/12/20 08:11:07;;;;;;;17.85;3.00;;;;;;;11.22;68.62;101623.59;5010915;28;20041;-46
2023/12/20 08:13:33;;;;;;;20.42;2.60;;;;;;;11.16;68.99;101612.16;5013034;28;20040;-48
2023/12/20 08:15:58;;;;;;;16.13;3.03;;;;;;;11.26;68.22;101624.56;5012138;28;20038;-49
2023/12/20 08:18:23;;;;;;;17.60;2.90;;;;;;;11.30;68.03;101614.22;5013484;28;20030;-45
2023/12/20 08:20:49;;;;;;;19.42;2.80;;;;;;;11.21;68.45;101605.31;5012913;28;20075;-50
2023/12/20 08:23:15;;;;;;;23.15;3.30;;;;;;;11.23;68.76;101604.50;5011890;28;20044;-46
2023/12/20 08:25:40;;;;;;;22.52;3.03;;;;;;;11.10;69.07;101606.81;5012705;28;20120;-46
2023/12/20 08:28:05;;;;;;;18.85;2.60;;;;;;;11.18;68.59;101607.84;5012218;28;20115;-45
2023/12/20 08:30:32;;;;;;;14.68;2.42;;;;;;;11.29;68.06;101608.97;5012973;28;20555;-49
2023/12/20 08:33:00;;;;;;;16.67;2.92;;;;;;;11.09;68.80;101602.44;5012239;28;20048;-50
2023/12/20 08:35:25;;;;;;;19.35;2.80;;;;;;;11.32;67.55;101602.09;5013254;28;20084;-47
2023/12/20 08:37:51;;;;;;;14.93;2.65;;;;;;;11.37;67.42;101605.69;5011726;28;20037;-47
2023/12/20 08:40:16;;;;;;;20.88;3.13;;;;;;;11.24;67.63;101624.53;5012407;28;20049;-47
2023/12/20 08:42:41;;;;;;;14.75;2.60;;;;;;;11.51;67.45;101623.38;5003849;28;20534;-50
2023/12/20 08:45:07;;;;;;;19.05;3.05;;;;;;;11.30;68.23;101615.94;5011854;28;20521;-45
2023/12/20 08:47:32;;;;;;;20.42;2.80;;;;;;;11.65;67.45;101617.56;5012323;28;20061;-46
2023/12/20 08:49:59;;;;;;;21.92;2.75;;;;;;;11.52;67.51;101631.25;5012418;28;20065;-49
2023/12/20 08:52:27;;;;;;;15.32;2.58;;;;;;;11.82;65.89;101630.16;5012276;28;20102;-45
2023/12/20 08:54:53;;;;;;;20.05;3.58;;;;;;;11.70;66.51;101626.41;5011725;28;20037;-49
2023/12/20 08:57:20;;;;;;;19.13;3.10;;;;;;;11.83;66.34;101621.47;5011499;28;20057;-48
2023/12/20 08:59:47;;;;;;;19.70;2.78;;;;;;;11.55;66.59;101610.41;5012727;28;20497;-43
2023/12/20 09:02:12;;;;;;;14.90;2.50;;;;;;;11.97;66.01;101613.03;5011802;28;20080;-48
2023/12/20 09:04:38;;;;;;;15.60;2.70;;;;;;;12.10;66.42;101601.09;5012311;28;20069;-44
2023/12/20 09:07:03;;;;;;;22.17;2.80;;;;;;;11.85;66.46;101611.91;5011570;28;20504;-45
2023/12/20 09:09:29;;;;;;;20.65;2.85;;;;;;;11.73;66.16;101613.44;5012489;28;20026;-48
2023/12/20 09:11:54;;;;;;;19.42;2.95;;;;;;;11.99;66.21;101602.63;5011549;28;20432;-45
2023/12/20 09:14:19;;;;;;;21.30;2.70;;;;;;;11.74;66.95;101596.91;5012038;28;20029;-45
2023/12/20 09:16:45;;;;;;;16.98;3.00;;;;;;;11.82;66.18;101607.53;5011683;28;20034;-44
2023/12/20 09:19:10;;;;;;;15.25;2.40;;;;;;;11.98;66.17;101603.47;5011202;28;20040;-43
2023/12/20 09:21:35;;;;;;;18.45;3.15;;;;;;;11.98;65.84;101606.97;5011918;28;20053;-50
2023/12/20 09:24:00;;;;;;;17.73;2.60;;;;;;;12.15;65.40;101608.16;5010829;28;20511;-45
2023/12/20 09:26:26;;;;;;;20.80;2.75;;;;;;;11.92;66.37;101600.75;5020325;23;20095;-78
2023/12/20 09:28:51;;;;;;;15.68;3.22;;;;;;;12.08;65.46;101605.41;5017960;28;20471;-78
2023/12/20 09:31:17;;;;;;;14.85;2.60;;;;;;;12.00;66.00;101604.38;5021279;28;20030;-79
2023/12/20 09:33:45;;;;;;;20.23;3.03;;;;;;;11.92;66.54;101617.31;5019867;28;20041;-79
2023/12/20 09:36:10;;;;;;;15.63;2.85;;;;;;;12.08;65.32;101618.47;5014119;28;20046;-78
2023/12/20 09:38:36;;;;;;;19.00;3.00;;;;;;;12.15;66.06;101604.66;5014424;28;20033;-80
2023/12/20 09:41:03;;;;;;;18.58;2.92;;;;;;;12.05;65.93;101598.41;5019541;28;20034;-78
2023/12/20 09:43:30;;;;;;;17.95;2.53;;;;;;;11.97;66.64;101604.31;5025555;28;20065;-78
2023/12/20 09:46:02;;;;;;;21.05;3.08;;;;;;;11.87;67.00;101616.34;5023919;28;20193;-78
2023/12/20 09:48:27;;;;;;;21.52;2.80;;;;;;;11.62;67.21;101624.47;5020358;28;20030;-79
2023/12/20 09:50:53;;;;;;;17.27;2.22;;;;;;;12.02;66.23;101624.44;5014180;28;20494;-78
2023/12/20 09:53:33;;;;;;;17.80;2.72;;;;;;;11.83;66.49;101624.97;5012597;28;20475;-78
2023/12/20 09:56:05;;;;;;;20.73;2.40;;;;;;;12.08;66.21;101623.69;5011240;28;20065;-78
2023/12/20 09:58:30;;;;;;;23.70;3.88;;;;;;;12.05;66.13;101627.16;5011685;28;20422;-79
2023/12/20 10:00:56;;;;;;;19.73;2.60;;;;;;;11.98;66.31;101621.75;5012157;28;20042;-80
2023/12/20 10:03:34;;;;;;;15.18;2.53;;;;;;;11.91;66.11;101623.38;5012384;28;20073;-79
2023/12/20 10:06:00;;;;;;;16.15;2.30;;;;;;;11.77;66.67;101615.25;5010746;28;20058;-79
2023/12/20 10:08:41;;;;;;;15.57;2.38;;;;;;;11.89;65.90;101617.25;5012020;28;20042;-79
2023/12/20 10:11:06;;;;;;;16.73;2.55;;;;;;;12.35;64.55;101608.53;5014833;28;20030;-79
2023/12/20 10:13:41;;;;;;;19.80;2.55;;;;;;;12.07;64.69;101601.94;5013811;28;20033;-79
2023/12/20 10:16:07;;;;;;;13.93;2.70;;;;;;;11.84;66.39;101618.88;5014648;28;20038;-78
2023/12/20 10:18:33;;;;;;;15.38;2.50;;;;;;;12.11;65.68;101615.94;5013643;28;20119;-77
2023/12/20 10:21:03;;;;;;;16.13;2.85;;;;;;;12.02;66.11;101618.34;5014168;28;20041;-78
2023/12/20 10:23:32;;;;;;;19.58;2.22;;;;;;;12.41;64.60;101611.25;5012254;28;20484;-79
2023/12/20 10:26:00;;;;;;;15.48;2.42;;;;;;;12.46;65.33;101621.78;5012252;28;20038;-77
2023/12/20 10:28:29;;;;;;;15.23;2.25;;;;;;;12.14;66.13;101595.94;5011143;28;20034;-78
2023/12/20 10:30:57;;;;;;;19.55;2.83;;;;;;;12.43;65.58;101622.63;5011452;28;20041;-78
2023/12/20 10:33:25;;;;;;;22.30;2.65;;;;;;;12.48;65.50;101617.47;5012284;28;20092;-79
2023/12/20 10:35:55;;;;;;;16.25;2.63;;;;;;;12.22;66.04;101621.34;5011346;28;20476;-79
2023/12/20 10:38:21;;;;;;;14.00;2.38;;;;;;;12.33;65.92;101612.84;5010995;28;20431;-79
2023/12/20 10:40:48;;;;;;;12.20;2.40;;;;;;;12.50;65.16;101600.94;5011689;28;20044;-78
2023/12/20 10:43:14;;;;;;;15.10;2.92;;;;;;;12.67;65.08;101597.75;5010307;28;20097;-79
2023/12/20 10:45:41;;;;;;;19.17;2.97;;;;;;;12.16;67.10;101593.34;5011965;28;20026;-78
2023/12/20 10:48:07;;;;;;;20.98;3.45;;;;;;;12.35;66.79;101594.56;5014034;28;20046;-80
2023/12/20 10:50:38;;;;;;;22.70;2.53;;;;;;;12.28;66.86;101585.75;5011778;28;20042;-78
2023/12/20 10:53:03;;;;;;;13.68;2.60;;;;;;;12.74;65.61;101582.16;5010552;28;20045;-79
2023/12/20 10:55:29;;;;;;;19.40;2.90;;;;;;;12.79;65.23;101571.78;5011449;28;20038;-80
2023/12/20 10:58:15;;;;;;;16.38;3.22;;;;;;;12.64;65.14;101563.66;5010690;28;20060;-79
2023/12/20 11:00:43;;;;;;;19.02;2.95;;;;;;;12.95;65.07;101563.28;5011208;28;20034;-78
2023/12/20 11:03:10;;;;;;;17.23;2.50;;;;;;;13.02;64.16;101570.38;5010917;28;20659;-79
2023/12/20 11:06:15;;;;;;;17.90;2.90;;;;;;;12.84;64.67;101565.75;5011393;28;20517;-78
2023/12/20 11:08:57;;;;;;;17.77;2.55;;;;;;;12.74;65.00;101562.97;4999842;28;20046;-80
2023/12/20 11:11:53;;;;;;;15.85;2.58;;;;;;;12.69;64.96;101568.09;5011486;28;20033;-81